Time;durP1;ratioP1;P1;durP2;ratioP2;P2;SDS_P1;SDS_P2;PMS_P1;PMS_P2;Temp;Humidity;BMP_temperature;BMP_pressure;BME280_temperature;BME280_humidity;BME280_pressure;Samples;Min_cycle;Max_cycle;Signal;HPM_P1;HPM_P2
2023/09/19 00:01:12;;;;;;;;;;;;;;;24.44;50.96;101263.16;7400167;19;1712;-38
2023/09/19 00:03:42;;;;;;;;;;;;;;;24.40;51.12;101249.09;7396283;19;1855;-37
2023/09/19 00:06:13;;;;;;;;;;;;;;;24.45;51.01;101249.47;7397788;19;1798;-37
2023/09/19 00:08:43;;;;;;;;;;;;;;;24.41;51.17;101240.84;7397591;19;1914;-37
2023/09/19 00:11:12;;;;;;;;;;;;;;;24.43;51.17;101254.19;7398828;19;1744;-37
2023/09/19 00:13:43;;;;;;;;;;;;;;;24.45;51.00;101244.06;7396398;19;1701;-37
2023/09/19 00:16:12;;;;;;;;;;;;;;;24.38;51.05;101238.44;7396849;19;1664;-38
2023/09/19 00:18:40;;;;;;;;;;;;;;;24.39;51.06;101252.81;7395846;19;1826;-38
2023/09/19 00:21:10;;;;;;;;;;;;;;;24.42;50.72;101242.53;7396747;19;1490;-37
2023/09/19 00:23:38;;;;;;;;;;;;;;;24.43;50.70;101224.44;7396837;19;1530;-37
2023/09/19 00:26:06;;;;;;;;;;;;;;;24.39;50.91;101218.53;7398351;19;1632;-38
2023/09/19 00:28:35;;;;;;;;;;;;;;;24.40;50.88;101219.38;7397003;19;1658;-37
2023/09/19 00:31:08;;;;;;;;;;;;;;;24.46;50.74;101243.06;7398967;19;1182;-37
2023/09/19 00:33:36;;;;;;;;;;;;;;;24.43;50.67;101219.03;7398278;19;1495;-38
2023/09/19 00:36:05;;;;;;;;;;;;;;;24.45;51.10;101229.69;7396510;19;1490;-37
2023/09/19 00:38:33;;;;;;;;;;;;;;;24.45;50.86;101235.09;7395283;19;1883;-38
2023/09/19 00:41:02;;;;;;;;;;;;;;;24.43;50.84;101248.78;7396995;19;1565;-37
2023/09/19 00:43:34;;;;;;;;;;;;;;;24.40;50.80;101241.00;7395855;19;1478;-38
2023/09/19 00:46:03;;;;;;;;;;;;;;;24.40;51.00;101238.28;7398582;19;1662;-37
2023/09/19 00:48:35;;;;;;;;;;;;;;;24.37;50.66;101216.97;7395028;19;1762;-37
2023/09/19 00:51:06;;;;;;;;;;;;;;;24.46;50.64;101232.25;7382937;19;1581;-37
2023/09/19 00:53:35;;;;;;;;;;;;;;;24.37;50.75;101231.38;7395615;19;1736;-37
2023/09/19 00:56:05;;;;;;;;;;;;;;;24.45;50.88;101238.66;7398295;19;1663;-38
2023/09/19 00:58:35;;;;;;;;;;;;;;;24.38;51.02;101246.56;7397688;19;1318;-37
2023/09/19 01:01:06;;;;;;;;;;;;;;;24.37;50.80;101238.59;7396853;19;1883;-37
2023/09/19 01:03:37;;;;;;;;;;;;;;;24.40;50.69;101243.69;7396029;19;1874;-37
2023/09/19 01:06:07;;;;;;;;;;;;;;;24.36;50.43;101234.22;7398226;19;1466;-37
2023/09/19 01:08:36;;;;;;;;;;;;;;;24.41;50.71;101235.44;7393858;19;1534;-37
2023/09/19 01:11:11;;;;;;;;;;;;;;;24.39;51.13;101228.47;7396179;19;1563;-37
2023/09/19 01:13:48;;;;;;;;;;;;;;;24.37;50.82;101225.09;7395243;19;1545;-38
2023/09/19 01:16:22;;;;;;;;;;;;;;;24.36;50.89;101229.66;7395546;19;1501;-37
2023/09/19 01:19:06;;;;;;;;;;;;;;;24.29;50.81;101228.63;7395213;19;1829;-37
2023/09/19 01:21:39;;;;;;;;;;;;;;;24.30;50.75;101221.34;7396381;19;1729;-37
2023/09/19 01:24:18;;;;;;;;;;;;;;;24.32;50.39;101205.81;7395552;19;1736;-37
2023/09/19 01:26:59;;;;;;;;;;;;;;;24.29;50.71;101196.19;7395520;19;1826;-37
2023/09/19 01:29:39;;;;;;;;;;;;;;;24.22;50.33;101195.13;7395452;19;1740;-37
2023/09/19 01:32:13;;;;;;;;;;;;;;;24.28;50.77;101212.56;7395816;19;1622;-37
2023/09/19 01:34:50;;;;;;;;;;;;;;;24.31;50.48;101206.81;7396431;19;1732;-37
2023/09/19 01:37:20;;;;;;;;;;;;;;;24.25;50.76;101212.84;7395974;19;1806;-37
2023/09/19 01:39:51;;;;;;;;;;;;;;;24.25;50.72;101211.00;7393739;19;2474;-37
2023/09/19 01:42:24;;;;;;;;;;;;;;;24.26;50.58;101198.34;7396084;19;1937;-37
2023/09/19 01:44:55;;;;;;;;;;;;;;;24.22;50.38;101187.84;7394960;19;1824;-37
2023/09/19 01:47:30;;;;;;;;;;;;;;;24.25;50.43;101191.22;7395344;19;1728;-37
2023/09/19 01:50:03;;;;;;;;;;;;;;;24.25;50.38;101199.34;7396438;19;1783;-37
2023/09/19 01:52:34;;;;;;;;;;;;;;;24.24;50.52;101209.31;7380148;19;1865;-37
2023/09/19 01:55:08;;;;;;;;;;;;;;;24.25;50.46;101197.47;7393044;19;1774;-37
2023/09/19 01:57:38;;;;;;;;;;;;;;;24.24;50.29;101189.56;7396046;19;1747;-37
2023/09/19 02:00:08;;;;;;;;;;;;;;;24.25;50.21;101191.22;7394622;19;1862;-37
2023/09/19 02:02:40;;;;;;;;;;;;;;;24.24;50.39;101192.25;7393457;19;2535;-37
2023/09/19 02:05:09;;;;;;;;;;;;;;;24.19;50.55;101190.00;7396936;19;1043;-38
2023/09/19 02:07:37;;;;;;;;;;;;;;;23.74;50.30;101110.88;7394341;19;2088;-37
2023/09/19 02:10:06;;;;;;;;;;;;;;;24.25;50.28;101188.53;7394549;19;1611;-37
2023/09/19 02:12:35;;;;;;;;;;;;;;;24.20;50.25;101189.88;7394412;19;1606;-37
2023/09/19 02:15:07;;;;;;;;;;;;;;;24.21;50.18;101199.69;7395548;19;1609;-37
2023/09/19 02:17:35;;;;;;;;;;;;;;;24.20;50.23;101180.91;7394869;19;1799;-37
2023/09/19 02:20:10;;;;;;;;;;;;;;;24.18;50.04;101183.78;7392550;19;1852;-38
2023/09/19 02:22:39;;;;;;;;;;;;;;;24.18;50.32;101199.97;7394608;19;1715;-37
2023/09/19 02:25:08;;;;;;;;;;;;;;;24.14;50.25;101198.59;7394565;19;1562;-37
2023/09/19 02:27:37;;;;;;;;;;;;;;;24.19;50.39;101199.00;7395169;19;1712;-37
2023/09/19 02:30:06;;;;;;;;;;;;;;;24.19;50.33;101182.78;7393362;19;1938;-37
2023/09/19 02:32:38;;;;;;;;;;;;;;;24.17;50.35;101184.78;7394160;19;1804;-37
2023/09/19 02:35:10;;;;;;;;;;;;;;;24.19;50.16;101181.91;7393812;19;1652;-37
2023/09/19 02:37:39;;;;;;;;;;;;;;;24.14;50.25;101174.28;7399340;19;1523;-37
2023/09/19 02:40:18;;;;;;;;;;;;;;;24.15;50.22;101188.63;7401335;19;1850;-38
2023/09/19 02:42:48;;;;;;;;;;;;;;;24.16;49.82;101174.97;7401887;19;1736;-37
2023/09/19 02:45:17;;;;;;;;;;;;;;;24.16;49.96;101180.38;7402103;19;1345;-37
2023/09/19 02:47:45;;;;;;;;;;;;;;;24.19;49.79;101185.47;7400298;19;1742;-37
2023/09/19 02:50:17;;;;;;;;;;;;;;;24.13;50.03;101191.53;7400399;19;1473;-41
2023/09/19 02:52:47;;;;;;;;;;;;;;;24.12;50.10;101195.22;7386572;19;1563;-37
2023/09/19 02:55:17;;;;;;;;;;;;;;;24.15;49.91;101184.09;7400649;19;1827;-37
2023/09/19 02:57:48;;;;;;;;;;;;;;;24.17;49.94;101192.91;7400350;19;1593;-37
2023/09/19 03:00:21;;;;;;;;;;;;;;;24.16;49.75;101204.69;7398348;19;1936;-37
2023/09/19 03:02:49;;;;;;;;;;;;;;;24.14;49.83;101193.19;7400251;19;1606;-37
2023/09/19 03:05:21;;;;;;;;;;;;;;;24.14;49.88;101192.38;7401367;19;1475;-37
2023/09/19 03:07:50;;;;;;;;;;;;;;;24.14;49.77;101189.66;7400779;19;1528;-37
2023/09/19 03:10:18;;;;;;;;;;;;;;;24.15;49.86;101194.03;7400197;19;2064;-38
2023/09/19 03:12:47;;;;;;;;;;;;;;;24.11;49.88;101198.06;7400464;19;1966;-37
2023/09/19 03:15:16;;;;;;;;;;;;;;;24.07;49.84;101185.88;7398542;19;1771;-37
2023/09/19 03:17:45;;;;;;;;;;;;;;;24.08;49.60;101201.94;7399720;19;1717;-38
2023/09/19 03:20:17;;;;;;;;;;;;;;;24.12;49.88;101197.91;7400257;19;1883;-37
2023/09/19 03:22:48;;;;;;;;;;;;;;;24.13;49.86;101204.16;7399114;19;1545;-37
2023/09/19 03:25:17;;;;;;;;;;;;;;;24.11;49.82;101193.50;7400190;19;1708;-37
2023/09/19 03:27:45;;;;;;;;;;;;;;;24.16;49.83;101207.41;7399523;19;1515;-37
2023/09/19 03:30:14;;;;;;;;;;;;;;;24.12;49.70;101199.78;7400462;19;1740;-37
2023/09/19 03:32:46;;;;;;;;;;;;;;;24.18;49.63;101199.97;7399102;19;1631;-37
2023/09/19 03:35:15;;;;;;;;;;;;;;;24.15;49.58;101196.75;7399432;19;1526;-37
2023/09/19 03:37:44;;;;;;;;;;;;;;;24.08;49.72;101201.94;7399694;19;1656;-37
2023/09/19 03:40:15;;;;;;;;;;;;;;;24.16;49.33;101207.41;7399230;19;1837;-37
2023/09/19 03:42:44;;;;;;;;;;;;;;;24.14;49.64;101204.00;7399708;19;1424;-37
2023/09/19 03:45:15;;;;;;;;;;;;;;;24.08;49.48;101206.50;7399360;19;1860;-37
2023/09/19 03:47:44;;;;;;;;;;;;;;;24.16;49.42;101211.97;7393007;19;1513;-38
2023/09/19 03:50:15;;;;;;;;;;;;;;;24.20;49.22;101192.56;7399061;19;1465;-37
2023/09/19 03:52:43;;;;;;;;;;;;;;;24.23;48.95;101194.09;7384441;19;1482;-37
2023/09/19 03:55:11;;;;;;;;;;;;;;;24.31;49.03;101212.22;7397566;19;2107;-37
2023/09/19 03:57:42;;;;;;;;;;;;;;;24.26;49.37;101192.94;7397553;19;1564;-37
2023/09/19 04:00:12;;;;;;;;;;;;;;;24.26;48.92;101211.88;7392597;19;1932;-37
2023/09/19 04:02:41;;;;;;;;;;;;;;;24.08;49.60;101201.94;7392692;19;1552;-37
2023/09/19 04:05:10;;;;;;;;;;;;;;;24.03;49.38;101188.06;7393990;19;1461;-37
2023/09/19 04:07:38;;;;;;;;;;;;;;;24.04;49.47;101197.03;7394494;19;1903;-37
2023/09/19 04:10:08;;;;;;;;;;;;;;;24.10;49.80;101186.44;7396701;19;1578;-37
2023/09/19 04:12:40;;;;;;;;;;;;;;;24.09;49.83;101200.94;7395755;19;1830;-37
2023/09/19 04:15:13;;;;;;;;;;;;;;;24.08;49.74;101193.84;7398722;19;1859;-37
2023/09/19 04:17:41;;;;;;;;;;;;;;;24.08;49.44;101204.66;7399039;19;1748;-37
2023/09/19 04:20:12;;;;;;;;;;;;;;;24.08;49.57;101199.25;7397908;19;1890;-37
2023/09/19 04:22:40;;;;;;;;;;;;;;;24.19;49.29;101209.81;7397419;19;1481;-37
2023/09/19 04:25:10;;;;;;;;;;;;;;;24.17;49.10;101213.66;7396974;19;1451;-37
2023/09/19 04:27:38;;;;;;;;;;;;;;;24.07;49.89;101202.09;7398527;19;1227;-37
2023/09/19 04:30:10;;;;;;;;;;;;;;;23.76;47.78;101200.66;7395128;19;1860;-37
2023/09/19 04:32:42;;;;;;;;;;;;;;;23.88;47.13;101209.41;7396692;19;1608;-38
2023/09/19 04:35:11;;;;;;;;;;;;;;;23.70;47.35;101201.31;7397073;19;1667;-38
2023/09/19 04:37:41;;;;;;;;;;;;;;;23.53;45.31;101212.94;7397211;19;1500;-37
2023/09/19 04:40:12;;;;;;;;;;;;;;;23.30;47.49;101210.72;7397542;19;1846;-38
2023/09/19 04:42:41;;;;;;;;;;;;;;;22.99;46.59;101207.47;7394661;19;1949;-37
2023/09/19 04:45:10;;;;;;;;;;;;;;;22.88;46.28;101205.84;7394632;19;1462;-37
2023/09/19 04:47:43;;;;;;;;;;;;;;;22.78;46.37;101215.81;7391908;19;1757;-37
2023/09/19 04:50:16;;;;;;;;;;;;;;;22.81;45.96;101199.34;7393023;19;1526;-37
2023/09/19 04:52:45;;;;;;;;;;;;;;;22.88;44.97;101202.28;7378577;19;1459;-37
2023/09/19 04:55:16;;;;;;;;;;;;;;;22.80;45.69;101208.41;7392385;19;1625;-37
2023/09/19 04:57:45;;;;;;;;;;;;;;;22.68;45.63;101213.19;7394804;19;1545;-38
2023/09/19 05:00:15;;;;;;;;;;;;;;;22.55;46.01;101215.38;7393800;19;1853;-38
2023/09/19 05:02:46;;;;;;;;;;;;;;;21.18;47.08;101193.09;7395292;19;1530;-37
2023/09/19 05:05:18;;;;;;;;;;;;;;;20.60;48.24;101205.38;7397711;19;1207;-37
2023/09/19 05:07:47;;;;;;;;;;;;;;;20.70;48.90;101188.47;7397066;19;1597;-37
2023/09/19 05:10:18;;;;;;;;;;;;;;;21.64;47.97;101187.03;7391754;19;1404;-37
2023/09/19 05:12:48;;;;;;;;;;;;;;;22.36;46.63;101184.81;7394271;19;1835;-37
2023/09/19 05:15:17;;;;;;;;;;;;;;;22.84;45.81;101172.94;7392479;19;1573;-38
2023/09/19 05:17:50;;;;;;;;;;;;;;;23.09;45.85;101172.38;7392294;19;1475;-38
2023/09/19 05:20:24;;;;;;;;;;;;;;;23.27;45.74;101189.41;7390439;19;1849;-37
2023/09/19 05:22:52;;;;;;;;;;;;;;;23.48;45.61;101174.78;7390720;19;1807;-37
2023/09/19 05:25:21;;;;;;;;;;;;;;;23.56;45.78;101172.16;7391498;19;1589;-37
2023/09/19 05:27:51;;;;;;;;;;;;;;;23.67;46.27;101179.16;7391919;19;1514;-38
2023/09/19 05:30:20;;;;;;;;;;;;;;;23.73;46.68;101173.13;7392986;19;1669;-37
2023/09/19 05:32:51;;;;;;;;;;;;;;;23.76;46.43;101170.97;7390887;19;1516;-37
2023/09/19 05:35:21;;;;;;;;;;;;;;;23.85;46.48;101182.69;7396377;19;1562;-42
2023/09/19 05:37:50;;;;;;;;;;;;;;;23.97;46.47;101186.00;7396073;19;1792;-37
2023/09/19 05:40:19;;;;;;;;;;;;;;;24.04;46.58;101178.97;7395492;19;1853;-37
2023/09/19 05:42:47;;;;;;;;;;;;;;;24.05;46.85;101180.63;7395867;19;1582;-37
2023/09/19 05:45:18;;;;;;;;;;;;;;;24.07;46.93;101170.53;7395983;19;1553;-37
2023/09/19 05:47:47;;;;;;;;;;;;;;;24.07;47.28;101167.81;7396096;19;1557;-37
2023/09/19 05:50:18;;;;;;;;;;;;;;;24.13;47.29;101163.63;7395472;19;1451;-37
2023/09/19 05:52:46;;;;;;;;;;;;;;;24.14;47.56;101177.00;7379884;19;1553;-38
2023/09/19 05:55:15;;;;;;;;;;;;;;;24.16;48.25;101180.38;7395892;19;1609;-38
2023/09/19 05:57:44;;;;;;;;;;;;;;;24.14;48.14;101171.59;7394771;19;1114;-38
2023/09/19 06:00:13;;;;;;;;;;;;;;;24.06;48.56;101166.13;7396144;19;1714;-38
2023/09/19 06:02:43;;;;;;;;;;;;;;;24.07;48.45;101158.88;7391069;19;1929;-38
2023/09/19 06:05:12;;;;;;;;;;;;;;;24.10;48.90;101154.00;7396241;19;2007;-37
2023/09/19 06:07:43;;;;;;;;;;;;;;;24.14;48.68;101149.97;7395218;19;1756;-37
2023/09/19 06:10:12;;;;;;;;;;;;;;;24.11;48.98;101162.94;7396968;19;1797;-37
2023/09/19 06:12:40;;;;;;;;;;;;;;;24.08;49.22;101147.06;7400610;19;1600;-37
2023/09/19 06:15:12;;;;;;;;;;;;;;;24.15;48.99;101161.63;7403512;19;1741;-37
2023/09/19 06:17:41;;;;;;;;;;;;;;;24.13;49.38;101153.69;7402965;19;1585;-38
2023/09/19 06:20:14;;;;;;;;;;;;;;;24.13;49.39;101152.81;7403651;19;1840;-37
2023/09/19 06:22:46;;;;;;;;;;;;;;;24.15;49.59;101145.41;7397342;19;1834;-38
2023/09/19 06:25:19;;;;;;;;;;;;;;;24.16;49.55;101155.22;7402444;19;1572;-37
2023/09/19 06:27:47;;;;;;;;;;;;;;;24.19;49.70;101150.34;7401762;19;1624;-38
2023/09/19 06:30:17;;;;;;;;;;;;;;;24.18;49.79;101156.75;7401239;19;1451;-37
2023/09/19 06:32:46;;;;;;;;;;;;;;;24.20;49.81;101167.41;7401878;19;1719;-38
2023/09/19 06:35:15;;;;;;;;;;;;;;;24.21;49.88;101151.03;7402122;19;1745;-37
2023/09/19 06:37:46;;;;;;;;;;;;;;;24.17;50.10;101155.06;7403061;19;1227;-37
2023/09/19 06:40:15;;;;;;;;;;;;;;;24.15;49.85;101167.03;7403484;19;1732;-37
2023/09/19 06:42:44;;;;;;;;;;;;;;;24.16;50.12;101157.94;7398939;19;1849;-38
2023/09/19 06:45:17;;;;;;;;;;;;;;;24.14;50.36;101157.25;7401431;19;2065;-38
2023/09/19 06:47:49;;;;;;;;;;;;;;;24.06;50.43;101143.69;7400556;19;1553;-37
2023/09/19 06:50:19;;;;;;;;;;;;;;;24.09;50.67;101152.28;7401193;19;1656;-37
2023/09/19 06:52:51;;;;;;;;;;;;;;;24.06;50.83;101158.03;7386742;19;1828;-38
2023/09/19 06:55:19;;;;;;;;;;;;;;;24.05;50.77;101148.22;7402686;19;1716;-38
2023/09/19 06:57:48;;;;;;;;;;;;;;;24.05;50.95;101141.97;7401262;19;1419;-37
2023/09/19 07:00:18;;;;;;;;;;;;;;;24.08;50.78;101144.38;7401085;19;1533;-38
2023/09/19 07:02:46;;;;;;;;;;;;;;;24.05;50.86;101148.22;7398726;19;1897;-37
2023/09/19 07:05:15;;;;;;;;;;;;;;;24.08;51.02;101137.09;7402821;19;1047;-38
2023/09/19 07:07:45;;;;;;;;;;;;;;;24.07;51.17;101140.81;7401597;19;1826;-37
2023/09/19 07:10:16;;;;;;;;;;;;;;;24.11;51.06;101149.44;7400509;19;1630;-38
2023/09/19 07:12:44;;;;;;;;;;;;;;;24.09;51.33;101138.78;7400458;19;1915;-37
2023/09/19 07:15:13;;;;;;;;;;;;;;;24.09;51.22;101152.28;7400104;19;2196;-37
2023/09/19 07:17:41;;;;;;;;;;;;;;;24.08;51.26;101137.09;7400032;19;1606;-38
2023/09/19 07:20:10;;;;;;;;;;;;;;;24.08;51.34;101139.81;7401221;19;1593;-38
2023/09/19 07:22:39;;;;;;;;;;;;;;;24.10;51.47;101131.56;7396876;19;1853;-37
2023/09/19 07:25:08;;;;;;;;;;;;;;;24.09;51.55;101129.84;7399658;19;1481;-38
2023/09/19 07:27:38;;;;;;;;;;;;;;;24.09;51.61;101125.28;7401083;19;1572;-38
2023/09/19 07:30:08;;;;;;;;;;;;;;;24.08;51.45;101107.38;7400067;19;1946;-38
2023/09/19 07:32:37;;;;;;;;;;;;;;;24.11;51.64;101120.56;7399116;19;1453;-37
2023/09/19 07:35:05;;;;;;;;;;;;;;;24.12;51.58;101126.81;7398061;19;1614;-38
2023/09/19 07:37:34;;;;;;;;;;;;;;;24.10;51.82;101110.78;7401539;19;1223;-37
2023/09/19 07:40:03;;;;;;;;;;;;;;;24.10;51.76;101104.53;7399217;19;1804;-37
2023/09/19 07:42:35;;;;;;;;;;;;;;;24.12;51.55;101097.94;7398002;19;1849;-38
2023/09/19 07:45:06;;;;;;;;;;;;;;;24.11;51.75;101098.09;7399293;19;1479;-37
2023/09/19 07:47:36;;;;;;;;;;;;;;;24.11;51.75;101096.25;7398420;19;1810;-37
2023/09/19 13:48:06;;;;;;;;;;;;;;;24.59;49.21;100837.06;7376674;19;1715;-40
2023/09/19 13:50:41;;;;;;;;;;;;;;;24.62;49.10;100844.84;7383007;19;1554;-40
2023/09/19 13:53:10;;;;;;;;;;;;;;;24.63;48.54;100834.88;7390104;19;1447;-41
2023/09/19 13:55:38;;;;;;;;;;;;;;;24.67;48.33;100834.38;7374864;19;1668;-40
2023/09/19 13:58:07;;;;;;;;;;;;;;;24.58;48.36;100821.88;7386106;19;1675;-40
2023/09/19 14:00:38;;;;;;;;;;;;;;;24.61;48.13;100826.91;7390124;19;1667;-40
2023/09/19 14:03:09;;;;;;;;;;;;;;;24.60;48.49;100831.50;7389998;19;1859;-40
2023/09/19 14:05:38;;;;;;;;;;;;;;;24.60;47.02;100836.91;7384711;19;1614;-40
2023/09/19 14:08:06;;;;;;;;;;;;;;;24.60;47.08;100836.91;7393501;19;1769;-40
2023/09/19 14:10:35;;;;;;;;;;;;;;;24.61;47.22;100832.31;7391980;19;1558;-40
2023/09/19 14:13:03;;;;;;;;;;;;;;;24.57;47.27;100820.16;7393419;19;1828;-40
2023/09/19 14:15:36;;;;;;;;;;;;;;;24.59;46.80;100808.19;7390829;19;1442;-40
2023/09/19 14:18:05;;;;;;;;;;;;;;;24.64;47.32;100814.94;7392044;19;1892;-40
2023/09/19 14:20:40;;;;;;;;;;;;;;;24.61;46.93;100822.38;7392022;19;1560;-40
2023/09/19 14:23:09;;;;;;;;;;;;;;;24.58;46.87;100817.28;7388919;19;1846;-40
2023/09/19 14:25:38;;;;;;;;;;;;;;;24.61;46.94;100805.28;7389917;19;1480;-40
2023/09/19 14:28:07;;;;;;;;;;;;;;;24.62;47.65;100804.28;7392560;19;1472;-40
2023/09/19 14:30:37;;;;;;;;;;;;;;;24.63;48.04;100814.09;7390361;19;1837;-40
2023/09/19 14:33:05;;;;;;;;;;;;;;;24.54;47.51;100821.34;7396182;19;1789;-40
2023/09/19 14:35:39;;;;;;;;;;;;;;;24.61;47.53;100840.44;7395705;19;1449;-40
2023/09/19 14:38:08;;;;;;;;;;;;;;;24.54;46.88;100823.22;7396266;19;1931;-41
2023/09/19 14:40:37;;;;;;;;;;;;;;;24.52;46.89;100812.56;7396706;19;1468;-40
2023/09/19 14:43:08;;;;;;;;;;;;;;;24.52;46.35;100819.84;7395066;19;1845;-40
2023/09/19 14:45:38;;;;;;;;;;;;;;;24.68;46.60;100814.41;7396423;19;1409;-40
2023/09/19 14:48:07;;;;;;;;;;;;;;;24.65;46.56;100831.00;7395195;19;1404;-40
2023/09/19 14:50:38;;;;;;;;;;;;;;;24.59;46.62;100821.69;7396616;19;1746;-40
2023/09/19 14:53:10;;;;;;;;;;;;;;;24.55;46.45;100817.66;7398809;19;1394;-41
2023/09/19 14:55:41;;;;;;;;;;;;;;;24.64;46.42;100804.13;7382496;19;1410;-40
2023/09/19 14:58:10;;;;;;;;;;;;;;;24.61;45.63;100826.91;7400444;19;1675;-40
2023/09/19 15:00:38;;;;;;;;;;;;;;;24.72;45.20;100820.31;7398563;19;1714;-41
2023/09/19 15:03:07;;;;;;;;;;;;;;;24.58;45.91;100817.28;7398633;19;1854;-40
2023/09/19 15:05:38;;;;;;;;;;;;;;;24.68;44.23;100821.69;7398622;19;1643;-40
2023/09/19 15:08:07;;;;;;;;;;;;;;;24.88;44.67;100835.66;7398486;19;1411;-40
2023/09/19 15:10:35;;;;;;;;;;;;;;;24.94;44.38;100814.16;7399980;19;1532;-40
2023/09/19 15:13:04;;;;;;;;;;;;;;;24.99;44.53;100822.63;7399959;19;1497;-41
2023/09/19 15:15:34;;;;;;;;;;;;;;;24.97;45.08;100824.66;7398913;19;1480;-40
2023/09/19 15:18:02;;;;;;;;;;;;;;;24.92;44.76;100805.38;7399301;19;1534;-40
2023/09/19 15:20:30;;;;;;;;;;;;;;;24.84;43.36;100820.81;7396243;19;1568;-40
2023/09/19 15:23:01;;;;;;;;;;;;;;;24.91;42.33;100814.53;7394720;19;1842;-40
2023/09/19 15:25:29;;;;;;;;;;;;;;;24.92;44.18;100818.06;7394064;19;1487;-40
2023/09/19 15:28:01;;;;;;;;;;;;;;;24.91;45.19;100811.84;7395554;19;1535;-40
2023/09/19 15:30:29;;;;;;;;;;;;;;;24.88;43.02;100819.44;7395609;19;1352;-40
2023/09/19 15:32:57;;;;;;;;;;;;;;;24.86;41.06;100825.03;7394660;19;1552;-40
2023/09/19 15:35:27;;;;;;;;;;;;;;;24.84;42.63;100810.81;7395752;19;1637;-40
2023/09/19 15:37:56;;;;;;;;;;;;;;;24.85;44.83;100817.06;7394714;19;1480;-40
2023/09/19 15:40:27;;;;;;;;;;;;;;;24.89;44.84;100823.81;7396879;19;1940;-40
2023/09/19 15:42:57;;;;;;;;;;;;;;;24.69;44.84;100815.25;7396880;19;1993;-40
2023/09/19 15:45:26;;;;;;;;;;;;;;;24.68;45.08;100821.69;7399532;19;1366;-40
2023/09/19 15:47:55;;;;;;;;;;;;;;;24.73;44.79;100808.47;7399676;19;1532;-40
2023/09/19 15:50:23;;;;;;;;;;;;;;;24.84;44.05;100816.22;7399191;19;1464;-40
2023/09/19 15:52:56;;;;;;;;;;;;;;;24.75;43.63;100811.84;7398342;19;1703;-40
2023/09/19 15:55:27;;;;;;;;;;;;;;;24.79;43.14;100799.69;7384227;19;1519;-40
2023/09/19 15:57:55;;;;;;;;;;;;;;;24.86;43.41;100808.78;7398891;19;1526;-40
2023/09/19 16:00:23;;;;;;;;;;;;;;;24.87;44.15;100815.91;7398452;19;1722;-40
2023/09/19 16:02:52;;;;;;;;;;;;;;;24.77;43.62;100815.22;7398322;19;2519;-40
2023/09/19 16:05:21;;;;;;;;;;;;;;;24.70;44.00;100819.66;7398517;19;1656;-40
2023/09/19 16:07:49;;;;;;;;;;;;;;;24.59;43.90;100819.00;7398428;19;1569;-40
2023/09/19 16:10:17;;;;;;;;;;;;;;;24.64;44.08;100809.53;7398406;19;1785;-40
2023/09/19 16:12:48;;;;;;;;;;;;;;;24.80;44.06;100806.78;7398011;19;1579;-40
2023/09/19 16:15:18;;;;;;;;;;;;;;;24.81;44.74;100812.03;7398460;19;1502;-40
2023/09/19 16:17:46;;;;;;;;;;;;;;;24.79;44.92;100829.44;7399188;19;1277;-40
2023/09/19 16:20:16;;;;;;;;;;;;;;;24.77;45.80;100826.03;7397206;19;1381;-40
2023/09/19 16:22:47;;;;;;;;;;;;;;;24.63;47.90;100821.34;7397044;19;1859;-40
2023/09/19 16:25:16;;;;;;;;;;;;;;;24.58;48.41;100833.53;7398008;19;1753;-40
2023/09/19 16:27:44;;;;;;;;;;;;;;;24.59;47.99;100845.16;7398184;19;1746;-40
2023/09/19 16:30:15;;;;;;;;;;;;;;;24.56;49.81;100842.81;7397924;19;2005;-40
2023/09/19 16:32:44;;;;;;;;;;;;;;;24.53;49.86;100844.03;7397759;19;1851;-40
2023/09/19 16:35:12;;;;;;;;;;;;;;;24.51;50.73;100847.88;7397977;19;1590;-40
2023/09/19 16:37:40;;;;;;;;;;;;;;;24.47;51.96;100833.84;7396110;19;1605;-40
2023/09/19 16:40:10;;;;;;;;;;;;;;;24.39;53.09;100826.59;7397051;19;1512;-40
2023/09/19 16:42:40;;;;;;;;;;;;;;;24.27;54.38;100832.50;7397730;19;1841;-40
2023/09/19 16:45:10;;;;;;;;;;;;;;;24.26;53.59;100831.66;7396683;19;1114;-40
2023/09/19 16:47:41;;;;;;;;;;;;;;;24.43;52.40;100837.88;7396180;19;1626;-40
2023/09/19 16:50:10;;;;;;;;;;;;;;;24.54;53.34;100844.84;7397065;19;1804;-40
2023/09/19 16:52:38;;;;;;;;;;;;;;;24.52;54.09;100850.44;7397099;19;1600;-40
2023/09/19 16:55:08;;;;;;;;;;;;;;;24.49;54.06;100849.88;7376591;19;1900;-40
2023/09/19 16:57:36;;;;;;;;;;;;;;;24.48;53.59;100854.44;7395404;19;1513;-40
2023/09/19 17:00:07;;;;;;;;;;;;;;;24.48;53.72;100853.63;7392455;19;1676;-40
2023/09/19 17:02:36;;;;;;;;;;;;;;;24.33;53.66;100838.09;7396868;19;1853;-40
2023/09/19 17:05:07;;;;;;;;;;;;;;;24.31;53.62;100858.16;7396859;19;1593;-40
2023/09/19 17:07:36;;;;;;;;;;;;;;;24.38;53.50;100851.09;7396381;19;1879;-40
2023/09/19 17:10:05;;;;;;;;;;;;;;;24.35;53.98;100862.22;7396018;19;1832;-40
2023/09/19 17:12:34;;;;;;;;;;;;;;;24.41;53.84;100848.88;7395052;19;1485;-40
2023/09/19 17:15:02;;;;;;;;;;;;;;;24.45;54.37;100860.19;7395451;19;1593;-40
2023/09/19 17:17:31;;;;;;;;;;;;;;;24.44;54.21;100858.50;7395406;19;1566;-40
2023/09/19 17:19:59;;;;;;;;;;;;;;;24.39;54.58;100860.88;7396327;19;1858;-40
2023/09/19 17:22:30;;;;;;;;;;;;;;;24.39;54.79;100839.25;7392896;19;1858;-40
2023/09/19 17:24:58;;;;;;;;;;;;;;;24.32;54.91;100844.50;7394720;19;1554;-40
2023/09/19 17:27:27;;;;;;;;;;;;;;;24.28;55.00;100853.13;7393966;19;1951;-40
2023/09/19 17:29:55;;;;;;;;;;;;;;;24.36;54.94;100850.41;7395484;19;1766;-40
2023/09/19 17:32:23;;;;;;;;;;;;;;;24.36;54.85;100853.94;7394541;19;1351;-40
2023/09/19 17:34:51;;;;;;;;;;;;;;;24.32;54.83;100854.47;7396817;19;1816;-40
2023/09/19 17:37:20;;;;;;;;;;;;;;;24.36;54.76;100853.94;7395510;19;1504;-40
2023/09/19 17:39:51;;;;;;;;;;;;;;;24.39;54.56;100850.06;7394950;19;1686;-40
2023/09/19 17:42:19;;;;;;;;;;;;;;;24.36;54.85;100864.75;7394522;19;1622;-40
2023/09/19 17:44:48;;;;;;;;;;;;;;;24.39;54.63;100855.47;7392763;19;2402;-41
2023/09/19 17:47:17;;;;;;;;;;;;;;;24.39;54.96;100874.38;7394781;19;1561;-40
2023/09/19 17:49:49;;;;;;;;;;;;;;;24.37;54.85;100865.59;7393354;19;1512;-40
2023/09/19 17:52:18;;;;;;;;;;;;;;;24.28;55.04;100872.88;7394840;19;1537;-40
2023/09/19 17:54:48;;;;;;;;;;;;;;;24.35;55.08;100867.63;7377286;19;1779;-40
2023/09/19 17:57:19;;;;;;;;;;;;;;;24.38;55.08;100883.50;7393359;19;1415;-40
2023/09/19 17:59:48;;;;;;;;;;;;;;;24.40;55.24;100862.56;7392433;19;1560;-40
2023/09/19 18:02:16;;;;;;;;;;;;;;;24.32;55.52;100859.88;7395257;19;1774;-40
2023/09/19 18:04:44;;;;;;;;;;;;;;;24.26;55.36;100858.69;7393910;19;1845;-40
2023/09/19 18:07:13;;;;;;;;;;;;;;;24.33;55.08;100867.81;7395187;19;1875;-40
2023/09/19 18:09:41;;;;;;;;;;;;;;;24.36;55.44;100882.84;7399009;19;1574;-42
2023/09/19 18:12:10;;;;;;;;;;;;;;;24.38;55.03;100884.34;7398773;19;1769;-43
2023/09/19 18:14:41;;;;;;;;;;;;;;;24.30;55.00;100875.41;7400514;19;1698;-43
2023/09/19 18:17:09;;;;;;;;;;;;;;;24.26;54.71;100882.16;7400963;19;1481;-44
2023/09/19 18:19:38;;;;;;;;;;;;;;;24.20;55.01;100895.31;7400935;19;1372;-43
2023/09/19 18:22:06;;;;;;;;;;;;;;;24.24;54.91;100881.50;7398898;19;1869;-46
2023/09/19 18:24:35;;;;;;;;;;;;;;;24.37;54.03;100879.09;7395018;19;1846;-43
2023/09/19 18:27:03;;;;;;;;;;;;;;;24.41;54.05;100875.06;7399251;19;1570;-43
2023/09/19 18:29:32;;;;;;;;;;;;;;;24.47;53.90;100873.53;7396784;19;1722;-43
2023/09/19 18:32:03;;;;;;;;;;;;;;;24.52;53.62;100874.75;7398183;19;1393;-43
2023/09/19 18:34:31;;;;;;;;;;;;;;;24.44;54.63;100866.63;7401837;19;1388;-40
2023/09/19 18:37:00;;;;;;;;;;;;;;;24.31;55.79;100877.94;7397735;19;1826;-40
2023/09/19 18:39:29;;;;;;;;;;;;;;;24.46;55.09;100867.28;7396469;19;1498;-40
2023/09/19 18:41:58;;;;;;;;;;;;;;;24.39;55.51;100891.47;7399907;19;1472;-40
2023/09/19 18:44:27;;;;;;;;;;;;;;;24.46;54.62;100883.50;7401199;19;1855;-41
2023/09/19 18:46:56;;;;;;;;;;;;;;;24.47;54.96;100887.06;7402327;19;1870;-40
2023/09/19 18:49:27;;;;;;;;;;;;;;;24.48;55.18;100892.31;7392819;19;1496;-41
2023/09/19 18:51:56;;;;;;;;;;;;;;;24.36;55.17;100882.84;7395182;19;1590;-40
2023/09/19 18:54:24;;;;;;;;;;;;;;;24.37;55.31;100901.59;7395213;19;1653;-40
2023/09/19 18:56:52;;;;;;;;;;;;;;;24.36;55.26;100904.47;7381160;19;1697;-40
2023/09/19 18:59:22;;;;;;;;;;;;;;;24.18;55.88;100894.63;7397519;19;1456;-40